Aviation Digital Data Service (ADDS)

Output produced by METARs form (1159 UTC 19 January 2019)
found at http://www.aviationweather.gov/metar/data/
 
METAR text: VEGT 191130Z 00000KT 3500 HZ FEW020 23/12 Q1013 BECMG 3000 BR
Conditions at: VEGT (GAUHATI (IN-AFB), IN) observed 1130 UTC 19 January 2019
Temperature: 23.0°C (73°F)
Dewpoint: 12.0°C (54°F) [RH = 50%]
Pressure (altimeter): 29.91 inches Hg (1013.0 mb)
Winds: calm
Visibility: 2.17 miles (3.49 km)
Ceiling: at least 12,000 feet AGL
Clouds: few clouds at 2000 feet AGL
Weather: HZ  (haze)

METAR text: VEGT 191100Z 34004KT 3500 HZ FEW020 24/12 Q1013 NOSIG
Conditions at: VEGT (GAUHATI (IN-AFB), IN) observed 1100 UTC 19 January 2019
Temperature: 24.0°C (75°F)
Dewpoint: 12.0°C (54°F) [RH = 47%]
Pressure (altimeter): 29.91 inches Hg (1013.0 mb)
Winds: from the NNW (340 degrees) at 5 MPH (4 knots; 2.1 m/s)
Visibility: 2.17 miles (3.49 km)
Ceiling: at least 12,000 feet AGL
Clouds: few clouds at 2000 feet AGL
Weather: HZ  (haze)

METAR text: VEGT 191030Z 34004KT 3500 HZ FEW020 25/12 Q1013 NOSIG
Conditions at: VEGT (GAUHATI (IN-AFB), IN) observed 1030 UTC 19 January 2019
Temperature: 25.0°C (77°F)
Dewpoint: 12.0°C (54°F) [RH = 44%]
Pressure (altimeter): 29.91 inches Hg (1013.0 mb)
Winds: from the NNW (340 degrees) at 5 MPH (4 knots; 2.1 m/s)
Visibility: 2.17 miles (3.49 km)
Ceiling: at least 12,000 feet AGL
Clouds: few clouds at 2000 feet AGL
Weather: HZ  (haze)

METAR text: VEGT 191000Z 34006KT 3500 HZ FEW020 26/12 Q1013 NOSIG
Conditions at: VEGT (GAUHATI (IN-AFB), IN) observed 1000 UTC 19 January 2019
Temperature: 26.0°C (79°F)
Dewpoint: 12.0°C (54°F) [RH = 42%]
Pressure (altimeter): 29.91 inches Hg (1013.0 mb)
Winds: from the NNW (340 degrees) at 7 MPH (6 knots; 3.1 m/s)
Visibility: 2.17 miles (3.49 km)
Ceiling: at least 12,000 feet AGL
Clouds: few clouds at 2000 feet AGL
Weather: HZ  (haze)

METAR text: VEGT 190930Z 33004KT 3500 HZ FEW020 26/12 Q1013 NOSIG
Conditions at: VEGT (GAUHATI (IN-AFB), IN) observed 0930 UTC 19 January 2019
Temperature: 26.0°C (79°F)
Dewpoint: 12.0°C (54°F) [RH = 42%]
Pressure (altimeter): 29.91 inches Hg (1013.0 mb)
Winds: from the NNW (330 degrees) at 5 MPH (4 knots; 2.1 m/s)
Visibility: 2.17 miles (3.49 km)
Ceiling: at least 12,000 feet AGL
Clouds: few clouds at 2000 feet AGL
Weather: HZ  (haze)

METAR text: VEGT 190900Z 34006KT 3000 HZ FEW020 26/13 Q1013 BECMG 4000 HZ
Conditions at: VEGT (GAUHATI (IN-AFB), IN) observed 0900 UTC 19 January 2019
Temperature: 26.0°C (79°F)
Dewpoint: 13.0°C (55°F) [RH = 45%]
Pressure (altimeter): 29.91 inches Hg (1013.0 mb)
Winds: from the NNW (340 degrees) at 7 MPH (6 knots; 3.1 m/s)
Visibility: 1.86 miles (2.99 km)
Ceiling: at least 12,000 feet AGL
Clouds: few clouds at 2000 feet AGL
Weather: HZ  (haze)

METAR text: VEGT 190830Z 31005KT 2500 HZ FEW020 26/13 Q1014 NOSIG
Conditions at: VEGT (GAUHATI (IN-AFB), IN) observed 0830 UTC 19 January 2019
Temperature: 26.0°C (79°F)
Dewpoint: 13.0°C (55°F) [RH = 45%]
Pressure (altimeter): 29.94 inches Hg (1014.0 mb)
Winds: from the NW (310 degrees) at 6 MPH (5 knots; 2.6 m/s)
Visibility: 1.55 miles (2.49 km)
Ceiling: at least 12,000 feet AGL
Clouds: few clouds at 2000 feet AGL
Weather: HZ  (haze)

METAR text: VEGT 190800Z 36004KT 2500 HZ FEW020 26/14 Q1014 NOSIG
Conditions at: VEGT (GAUHATI (IN-AFB), IN) observed 0800 UTC 19 January 2019
Temperature: 26.0°C (79°F)
Dewpoint: 14.0°C (57°F) [RH = 48%]
Pressure (altimeter): 29.94 inches Hg (1014.0 mb)
Winds: from the N (360 degrees) at 5 MPH (4 knots; 2.1 m/s)
Visibility: 1.55 miles (2.49 km)
Ceiling: at least 12,000 feet AGL
Clouds: few clouds at 2000 feet AGL
Weather: HZ  (haze)

METAR text: VEGT 190730Z 09007KT 2500 HZ FEW020 25/15 Q1014 NOSIG
Conditions at: VEGT (GAUHATI (IN-AFB), IN) observed 0730 UTC 19 January 2019
Temperature: 25.0°C (77°F)
Dewpoint: 15.0°C (59°F) [RH = 54%]
Pressure (altimeter): 29.94 inches Hg (1014.0 mb)
Winds: from the E (90 degrees) at 8 MPH (7 knots; 3.6 m/s)
Visibility: 1.55 miles (2.49 km)
Ceiling: at least 12,000 feet AGL
Clouds: few clouds at 2000 feet AGL
Weather: HZ  (haze)

METAR text: VEGT 190700Z 30007KT 2500 HZ FEW020 25/15 Q1015 NOSIG
Conditions at: VEGT (GAUHATI (IN-AFB), IN) observed 0700 UTC 19 January 2019
Temperature: 25.0°C (77°F)
Dewpoint: 15.0°C (59°F) [RH = 54%]
Pressure (altimeter): 29.97 inches Hg (1015.0 mb)
Winds: from the WNW (300 degrees) at 8 MPH (7 knots; 3.6 m/s)
Visibility: 1.55 miles (2.49 km)
Ceiling: at least 12,000 feet AGL
Clouds: few clouds at 2000 feet AGL
Weather: HZ  (haze)

METAR text: VEGT 190630Z 16007KT 2500 HZ FEW020 24/16 Q1016 NOSIG
Conditions at: VEGT (GAUHATI (IN-AFB), IN) observed 0630 UTC 19 January 2019
Temperature: 24.0°C (75°F)
Dewpoint: 16.0°C (61°F) [RH = 61%]
Pressure (altimeter): 30.00 inches Hg (1016.0 mb)
Winds: from the SSE (160 degrees) at 8 MPH (7 knots; 3.6 m/s)
Visibility: 1.55 miles (2.49 km)
Ceiling: at least 12,000 feet AGL
Clouds: few clouds at 2000 feet AGL
Weather: HZ  (haze)

METAR text: VEGT 190600Z 36007KT 2200 HZ FEW020 24/16 Q1016 NOSIG
Conditions at: VEGT (GAUHATI (IN-AFB), IN) observed 0600 UTC 19 January 2019
Temperature: 24.0°C (75°F)
Dewpoint: 16.0°C (61°F) [RH = 61%]
Pressure (altimeter): 30.00 inches Hg (1016.0 mb)
Winds: from the N (360 degrees) at 8 MPH (7 knots; 3.6 m/s)
Visibility: 1.37 miles (2.20 km)
Ceiling: at least 12,000 feet AGL
Clouds: few clouds at 2000 feet AGL
Weather: HZ  (haze)

METAR text: VEGT 190530Z 34005KT 2000 HZ FEW020 23/17 Q1017 BECMG 3000 HZ
Conditions at: VEGT (GAUHATI (IN-AFB), IN) observed 0530 UTC 19 January 2019
Temperature: 23.0°C (73°F)
Dewpoint: 17.0°C (63°F) [RH = 69%]
Pressure (altimeter): 30.03 inches Hg (1017.0 mb)
Winds: from the NNW (340 degrees) at 6 MPH (5 knots; 2.6 m/s)
Visibility: 1.24 miles (2.00 km)
Ceiling: at least 12,000 feet AGL
Clouds: few clouds at 2000 feet AGL
Weather: HZ  (haze)

METAR text: VEGT 190500Z 33003KT 2000 BR FEW020 22/17 Q1018 NOSIG
Conditions at: VEGT (GAUHATI (IN-AFB), IN) observed 0500 UTC 19 January 2019
Temperature: 22.0°C (72°F)
Dewpoint: 17.0°C (63°F) [RH = 73%]
Pressure (altimeter): 30.06 inches Hg (1018.0 mb)
Winds: from the NNW (330 degrees) at 3 MPH (3 knots; 1.5 m/s)
Visibility: 1.24 miles (2.00 km)
Ceiling: at least 12,000 feet AGL
Clouds: few clouds at 2000 feet AGL
Weather: BR  (mist)

METAR text: VEGT 190430Z 02003KT 2000 BR FEW020 21/17 Q1018 NOSIG
Conditions at: VEGT (GAUHATI (IN-AFB), IN) observed 0430 UTC 19 January 2019
Temperature: 21.0°C (70°F)
Dewpoint: 17.0°C (63°F) [RH = 78%]
Pressure (altimeter): 30.06 inches Hg (1018.0 mb)
Winds: from the NNE (20 degrees) at 3 MPH (3 knots; 1.5 m/s)
Visibility: 1.24 miles (2.00 km)
Ceiling: at least 12,000 feet AGL
Clouds: few clouds at 2000 feet AGL
Weather: BR  (mist)

METAR text: VEGT 190400Z 02004KT 1800 BR FEW020 19/17 Q1018 NOSIG
Conditions at: VEGT (GAUHATI (IN-AFB), IN) observed 0400 UTC 19 January 2019
Temperature: 19.0°C (66°F)
Dewpoint: 17.0°C (63°F) [RH = 88%]
Pressure (altimeter): 30.06 inches Hg (1018.0 mb)
Winds: from the NNE (20 degrees) at 5 MPH (4 knots; 2.1 m/s)
Visibility: 1.12 miles (1.80 km)
Ceiling: at least 12,000 feet AGL
Clouds: few clouds at 2000 feet AGL
Weather: BR  (mist)

METAR text: VEGT 190330Z 01003KT 1800 BR FEW020 18/17 Q1018 NOSIG
Conditions at: VEGT (GAUHATI (IN-AFB), IN) observed 0330 UTC 19 January 2019
Temperature: 18.0°C (64°F)
Dewpoint: 17.0°C (63°F) [RH = 94%]
Pressure (altimeter): 30.06 inches Hg (1018.0 mb)
Winds: from the N (10 degrees) at 3 MPH (3 knots; 1.5 m/s)
Visibility: 1.12 miles (1.80 km)
Ceiling: at least 12,000 feet AGL
Clouds: few clouds at 2000 feet AGL
Weather: BR  (mist)

METAR text: VEGT 190300Z 00000KT 1800 BR FEW020 17/16 Q1018 NOSIG
Conditions at: VEGT (GAUHATI (IN-AFB), IN) observed 0300 UTC 19 January 2019
Temperature: 17.0°C (63°F)
Dewpoint: 16.0°C (61°F) [RH = 94%]
Pressure (altimeter): 30.06 inches Hg (1018.0 mb)
Winds: calm
Visibility: 1.12 miles (1.80 km)
Ceiling: at least 12,000 feet AGL
Clouds: few clouds at 2000 feet AGL
Weather: BR  (mist)

METAR text: VEGT 190230Z 00000KT 1500 BR FEW020 15/15 Q1017 NOSIG
Conditions at: VEGT (GAUHATI (IN-AFB), IN) observed 0230 UTC 19 January 2019
Temperature: 15.0°C (59°F)
Dewpoint: 15.0°C (59°F) [RH = 100%]
Pressure (altimeter): 30.03 inches Hg (1017.0 mb)
Winds: calm
Visibility: 0.93 miles (1.50 km)
Ceiling: at least 12,000 feet AGL
Clouds: few clouds at 2000 feet AGL
Weather: BR  (mist)

METAR text: VEGT 190200Z 00000KT 1500 BR FEW020 14/13 Q1017 BECMG 3000 BR
Conditions at: VEGT (GAUHATI (IN-AFB), IN) observed 0200 UTC 19 January 2019
Temperature: 14.0°C (57°F)
Dewpoint: 13.0°C (55°F) [RH = 94%]
Pressure (altimeter): 30.03 inches Hg (1017.0 mb)
Winds: calm
Visibility: 0.93 miles (1.50 km)
Ceiling: at least 12,000 feet AGL
Clouds: few clouds at 2000 feet AGL
Weather: BR  (mist)

METAR text: VEGT 190130Z 00000KT 1500 BR FEW020 13/12 Q1016 NOSIG
Conditions at: VEGT (GAUHATI (IN-AFB), IN) observed 0130 UTC 19 January 2019
Temperature: 13.0°C (55°F)
Dewpoint: 12.0°C (54°F) [RH = 94%]
Pressure (altimeter): 30.00 inches Hg (1016.0 mb)
Winds: calm
Visibility: 0.93 miles (1.50 km)
Ceiling: at least 12,000 feet AGL
Clouds: few clouds at 2000 feet AGL
Weather: BR  (mist)

METAR text: VEGT 190100Z 00000KT 1000 R02/1300 MIFG FEW020 13/12 Q1016 NOSIG
Conditions at: VEGT (GAUHATI (IN-AFB), IN) observed 0100 UTC 19 January 2019
Temperature: 13.0°C (55°F)
Dewpoint: 12.0°C (54°F) [RH = 94%]
Pressure (altimeter): 30.00 inches Hg (1016.0 mb)
Winds: calm
Visibility: 0.62 miles (1.00 km)
Ceiling: at least 12,000 feet AGL
Clouds: few clouds at 2000 feet AGL
Weather: MIFG  (shallow fog)

METAR text: VEGT 190030Z 00000KT 1500 BR FEW020 SCT100 13/12 Q1015 NOSIG
Conditions at: VEGT (GAUHATI (IN-AFB), IN) observed 0030 UTC 19 January 2019
Temperature: 13.0°C (55°F)
Dewpoint: 12.0°C (54°F) [RH = 94%]
Pressure (altimeter): 29.97 inches Hg (1015.0 mb)
Winds: calm
Visibility: 0.93 miles (1.50 km)
Ceiling: at least 12,000 feet AGL
Clouds: few clouds at 2000 feet AGL
scattered clouds at 10000 feet AGL
Weather: BR  (mist)

METAR text: VEGT 190000Z 00000KT 2000 BR FEW020 SCT100 14/13 Q1015 NOSIG
Conditions at: VEGT (GAUHATI (IN-AFB), IN) observed 0000 UTC 19 January 2019
Temperature: 14.0°C (57°F)
Dewpoint: 13.0°C (55°F) [RH = 94%]
Pressure (altimeter): 29.97 inches Hg (1015.0 mb)
Winds: calm
Visibility: 1.24 miles (2.00 km)
Ceiling: at least 12,000 feet AGL
Clouds: few clouds at 2000 feet AGL
scattered clouds at 10000 feet AGL
Weather: BR  (mist)

METAR text: VEGT 182330Z 00000KT 2000 BR FEW020 SCT100 14/13 Q1015 BECMG 1000 MIFG
Conditions at: VEGT (GAUHATI (IN-AFB), IN) observed 2330 UTC 18 January 2019
Temperature: 14.0°C (57°F)
Dewpoint: 13.0°C (55°F) [RH = 94%]
Pressure (altimeter): 29.97 inches Hg (1015.0 mb)
Winds: calm
Visibility: 1.24 miles (2.00 km)
Ceiling: at least 12,000 feet AGL
Clouds: few clouds at 2000 feet AGL
scattered clouds at 10000 feet AGL
Weather: BR  (mist)

METAR text: VEGT 182300Z 00000KT 2000 BR FEW020 SCT100 13/12 Q1015 NOSIG
Conditions at: VEGT (GAUHATI (IN-AFB), IN) observed 2300 UTC 18 January 2019
Temperature: 13.0°C (55°F)
Dewpoint: 12.0°C (54°F) [RH = 94%]
Pressure (altimeter): 29.97 inches Hg (1015.0 mb)
Winds: calm
Visibility: 1.24 miles (2.00 km)
Ceiling: at least 12,000 feet AGL
Clouds: few clouds at 2000 feet AGL
scattered clouds at 10000 feet AGL
Weather: BR  (mist)

METAR text: VEGT 182230Z 00000KT 2000 BR FEW020 SCT100 13/12 Q1015 NOSIG
Conditions at: VEGT (GAUHATI (IN-AFB), IN) observed 2230 UTC 18 January 2019
Temperature: 13.0°C (55°F)
Dewpoint: 12.0°C (54°F) [RH = 94%]
Pressure (altimeter): 29.97 inches Hg (1015.0 mb)
Winds: calm
Visibility: 1.24 miles (2.00 km)
Ceiling: at least 12,000 feet AGL
Clouds: few clouds at 2000 feet AGL
scattered clouds at 10000 feet AGL
Weather: BR  (mist)

METAR text: VEGT 182200Z 00000KT 2000 BR FEW020 SCT100 14/13 Q1015 NOSIG
Conditions at: VEGT (GAUHATI (IN-AFB), IN) observed 2200 UTC 18 January 2019
Temperature: 14.0°C (57°F)
Dewpoint: 13.0°C (55°F) [RH = 94%]
Pressure (altimeter): 29.97 inches Hg (1015.0 mb)
Winds: calm
Visibility: 1.24 miles (2.00 km)
Ceiling: at least 12,000 feet AGL
Clouds: few clouds at 2000 feet AGL
scattered clouds at 10000 feet AGL
Weather: BR  (mist)

METAR text: VEGT 182130Z 00000KT 2000 BR FEW020 SCT100 14/13 Q1015 NOSIG
Conditions at: VEGT (GAUHATI (IN-AFB), IN) observed 2130 UTC 18 January 2019
Temperature: 14.0°C (57°F)
Dewpoint: 13.0°C (55°F) [RH = 94%]
Pressure (altimeter): 29.97 inches Hg (1015.0 mb)
Winds: calm
Visibility: 1.24 miles (2.00 km)
Ceiling: at least 12,000 feet AGL
Clouds: few clouds at 2000 feet AGL
scattered clouds at 10000 feet AGL
Weather: BR  (mist)

METAR text: VEGT 182100Z 00000KT 2000 BR FEW020 SCT100 14/13 Q1015 NOSIG
Conditions at: VEGT (GAUHATI (IN-AFB), IN) observed 2100 UTC 18 January 2019
Temperature: 14.0°C (57°F)
Dewpoint: 13.0°C (55°F) [RH = 94%]
Pressure (altimeter): 29.97 inches Hg (1015.0 mb)
Winds: calm
Visibility: 1.24 miles (2.00 km)
Ceiling: at least 12,000 feet AGL
Clouds: few clouds at 2000 feet AGL
scattered clouds at 10000 feet AGL
Weather: BR  (mist)

METAR text: VEGT 182030Z 00000KT 2000 BR FEW020 14/12 Q1015 NOSIG
Conditions at: VEGT (GAUHATI (IN-AFB), IN) observed 2030 UTC 18 January 2019
Temperature: 14.0°C (57°F)
Dewpoint: 12.0°C (54°F) [RH = 88%]
Pressure (altimeter): 29.97 inches Hg (1015.0 mb)
Winds: calm
Visibility: 1.24 miles (2.00 km)
Ceiling: at least 12,000 feet AGL
Clouds: few clouds at 2000 feet AGL
Weather: BR  (mist)

METAR text: VEGT 182000Z 00000KT 2500 BR FEW020 15/13 Q1015 NOSIG
Conditions at: VEGT (GAUHATI (IN-AFB), IN) observed 2000 UTC 18 January 2019
Temperature: 15.0°C (59°F)
Dewpoint: 13.0°C (55°F) [RH = 88%]
Pressure (altimeter): 29.97 inches Hg (1015.0 mb)
Winds: calm
Visibility: 1.55 miles (2.49 km)
Ceiling: at least 12,000 feet AGL
Clouds: few clouds at 2000 feet AGL
Weather: BR  (mist)

METAR text: VEGT 181930Z 00000KT 2500 BR FEW020 16/14 Q1015 NOSIG
Conditions at: VEGT (GAUHATI (IN-AFB), IN) observed 1930 UTC 18 January 2019
Temperature: 16.0°C (61°F)
Dewpoint: 14.0°C (57°F) [RH = 88%]
Pressure (altimeter): 29.97 inches Hg (1015.0 mb)
Winds: calm
Visibility: 1.55 miles (2.49 km)
Ceiling: at least 12,000 feet AGL
Clouds: few clouds at 2000 feet AGL
Weather: BR  (mist)

METAR text: VEGT 181900Z 00000KT 2500 BR FEW020 16/14 Q1015 NOSIG
Conditions at: VEGT (GAUHATI (IN-AFB), IN) observed 1900 UTC 18 January 2019
Temperature: 16.0°C (61°F)
Dewpoint: 14.0°C (57°F) [RH = 88%]
Pressure (altimeter): 29.97 inches Hg (1015.0 mb)
Winds: calm
Visibility: 1.55 miles (2.49 km)
Ceiling: at least 12,000 feet AGL
Clouds: few clouds at 2000 feet AGL
Weather: BR  (mist)

METAR text: VEGT 181830Z 00000KT 2500 BR FEW020 16/14 Q1015 NOSIG
Conditions at: VEGT (GAUHATI (IN-AFB), IN) observed 1830 UTC 18 January 2019
Temperature: 16.0°C (61°F)
Dewpoint: 14.0°C (57°F) [RH = 88%]
Pressure (altimeter): 29.97 inches Hg (1015.0 mb)
Winds: calm
Visibility: 1.55 miles (2.49 km)
Ceiling: at least 12,000 feet AGL
Clouds: few clouds at 2000 feet AGL
Weather: BR  (mist)

METAR text: VEGT 181800Z 00000KT 2500 BR FEW020 16/14 Q1015 NOSIG
Conditions at: VEGT (GAUHATI (IN-AFB), IN) observed 1800 UTC 18 January 2019
Temperature: 16.0°C (61°F)
Dewpoint: 14.0°C (57°F) [RH = 88%]
Pressure (altimeter): 29.97 inches Hg (1015.0 mb)
Winds: calm
Visibility: 1.55 miles (2.49 km)
Ceiling: at least 12,000 feet AGL
Clouds: few clouds at 2000 feet AGL
Weather: BR  (mist)

METAR text: VEGT 181730Z 00000KT 2500 BR FEW020 16/14 Q1015 NOSIG
Conditions at: VEGT (GAUHATI (IN-AFB), IN) observed 1730 UTC 18 January 2019
Temperature: 16.0°C (61°F)
Dewpoint: 14.0°C (57°F) [RH = 88%]
Pressure (altimeter): 29.97 inches Hg (1015.0 mb)
Winds: calm
Visibility: 1.55 miles (2.49 km)
Ceiling: at least 12,000 feet AGL
Clouds: few clouds at 2000 feet AGL
Weather: BR  (mist)

METAR text: VEGT 181700Z 00000KT 2500 BR FEW020 17/14 Q1015 NOSIG
Conditions at: VEGT (GAUHATI (IN-AFB), IN) observed 1700 UTC 18 January 2019
Temperature: 17.0°C (63°F)
Dewpoint: 14.0°C (57°F) [RH = 82%]
Pressure (altimeter): 29.97 inches Hg (1015.0 mb)
Winds: calm
Visibility: 1.55 miles (2.49 km)
Ceiling: at least 12,000 feet AGL
Clouds: few clouds at 2000 feet AGL
Weather: BR  (mist)

METAR text: VEGT 181630Z 19004KT 2500 BR FEW020 SCT100 17/14 Q1015 NOSIG
Conditions at: VEGT (GAUHATI (IN-AFB), IN) observed 1630 UTC 18 January 2019
Temperature: 17.0°C (63°F)
Dewpoint: 14.0°C (57°F) [RH = 82%]
Pressure (altimeter): 29.97 inches Hg (1015.0 mb)
Winds: from the S (190 degrees) at 5 MPH (4 knots; 2.1 m/s)
Visibility: 1.55 miles (2.49 km)
Ceiling: at least 12,000 feet AGL
Clouds: few clouds at 2000 feet AGL
scattered clouds at 10000 feet AGL
Weather: BR  (mist)

METAR text: VEGT 181600Z 18003KT 2500 BR FEW020 SCT100 17/14 Q1015 NOSIG
Conditions at: VEGT (GAUHATI (IN-AFB), IN) observed 1600 UTC 18 January 2019
Temperature: 17.0°C (63°F)
Dewpoint: 14.0°C (57°F) [RH = 82%]
Pressure (altimeter): 29.97 inches Hg (1015.0 mb)
Winds: from the S (180 degrees) at 3 MPH (3 knots; 1.5 m/s)
Visibility: 1.55 miles (2.49 km)
Ceiling: at least 12,000 feet AGL
Clouds: few clouds at 2000 feet AGL
scattered clouds at 10000 feet AGL
Weather: BR  (mist)

METAR text: VEGT 181530Z 18003KT 2500 BR FEW020 SCT100 18/14 Q1015 NOSIG
Conditions at: VEGT (GAUHATI (IN-AFB), IN) observed 1530 UTC 18 January 2019
Temperature: 18.0°C (64°F)
Dewpoint: 14.0°C (57°F) [RH = 77%]
Pressure (altimeter): 29.97 inches Hg (1015.0 mb)
Winds: from the S (180 degrees) at 3 MPH (3 knots; 1.5 m/s)
Visibility: 1.55 miles (2.49 km)
Ceiling: at least 12,000 feet AGL
Clouds: few clouds at 2000 feet AGL
scattered clouds at 10000 feet AGL
Weather: BR  (mist)

METAR text: VEGT 181500Z 00000KT 3000 BR FEW020 SCT100 18/14 Q1014 BECMG 2000 BR
Conditions at: VEGT (GAUHATI (IN-AFB), IN) observed 1500 UTC 18 January 2019
Temperature: 18.0°C (64°F)
Dewpoint: 14.0°C (57°F) [RH = 77%]
Pressure (altimeter): 29.94 inches Hg (1014.0 mb)
Winds: calm
Visibility: 1.86 miles (2.99 km)
Ceiling: at least 12,000 feet AGL
Clouds: few clouds at 2000 feet AGL
scattered clouds at 10000 feet AGL
Weather: BR  (mist)

METAR text: VEGT 181430Z 18003KT 3000 BR FEW020 SCT100 18/14 Q1014 NOSIG
Conditions at: VEGT (GAUHATI (IN-AFB), IN) observed 1430 UTC 18 January 2019
Temperature: 18.0°C (64°F)
Dewpoint: 14.0°C (57°F) [RH = 77%]
Pressure (altimeter): 29.94 inches Hg (1014.0 mb)
Winds: from the S (180 degrees) at 3 MPH (3 knots; 1.5 m/s)
Visibility: 1.86 miles (2.99 km)
Ceiling: at least 12,000 feet AGL
Clouds: few clouds at 2000 feet AGL
scattered clouds at 10000 feet AGL
Weather: BR  (mist)

METAR text: VEGT 181400Z 19003KT 3000 BR FEW020 SCT100 18/14 Q1014 NOSIG
Conditions at: VEGT (GAUHATI (IN-AFB), IN) observed 1400 UTC 18 January 2019
Temperature: 18.0°C (64°F)
Dewpoint: 14.0°C (57°F) [RH = 77%]
Pressure (altimeter): 29.94 inches Hg (1014.0 mb)
Winds: from the S (190 degrees) at 3 MPH (3 knots; 1.5 m/s)
Visibility: 1.86 miles (2.99 km)
Ceiling: at least 12,000 feet AGL
Clouds: few clouds at 2000 feet AGL
scattered clouds at 10000 feet AGL
Weather: BR  (mist)

METAR text: VEGT 181330Z 00000KT 3000 BR FEW020 18/14 Q1013 NOSIG
Conditions at: VEGT (GAUHATI (IN-AFB), IN) observed 1330 UTC 18 January 2019
Temperature: 18.0°C (64°F)
Dewpoint: 14.0°C (57°F) [RH = 77%]
Pressure (altimeter): 29.91 inches Hg (1013.0 mb)
Winds: calm
Visibility: 1.86 miles (2.99 km)
Ceiling: at least 12,000 feet AGL
Clouds: few clouds at 2000 feet AGL
Weather: BR  (mist)

METAR text: VEGT 181300Z 00000KT 3000 HZ FEW020 19/14 Q1013 NOSIG
Conditions at: VEGT (GAUHATI (IN-AFB), IN) observed 1300 UTC 18 January 2019
Temperature: 19.0°C (66°F)
Dewpoint: 14.0°C (57°F) [RH = 73%]
Pressure (altimeter): 29.91 inches Hg (1013.0 mb)
Winds: calm
Visibility: 1.86 miles (2.99 km)
Ceiling: at least 12,000 feet AGL
Clouds: few clouds at 2000 feet AGL
Weather: HZ  (haze)

METAR text: VEGT 181230Z 00000KT 3000 HZ FEW020 20/14 Q1013 NOSIG
Conditions at: VEGT (GAUHATI (IN-AFB), IN) observed 1230 UTC 18 January 2019
Temperature: 20.0°C (68°F)
Dewpoint: 14.0°C (57°F) [RH = 68%]
Pressure (altimeter): 29.91 inches Hg (1013.0 mb)
Winds: calm
Visibility: 1.86 miles (2.99 km)
Ceiling: at least 12,000 feet AGL
Clouds: few clouds at 2000 feet AGL
Weather: HZ  (haze)

METAR text: VEGT 181200Z 17002KT 3000 HZ FEW020 21/13 Q1012 NOSIG
Conditions at: VEGT (GAUHATI (IN-AFB), IN) observed 1200 UTC 18 January 2019
Temperature: 21.0°C (70°F)
Dewpoint: 13.0°C (55°F) [RH = 60%]
Pressure (altimeter): 29.88 inches Hg (1012.0 mb)
Winds: from the S (170 degrees) at 2 MPH (2 knots; 1.0 m/s)
Visibility: 1.86 miles (2.99 km)
Ceiling: at least 12,000 feet AGL
Clouds: few clouds at 2000 feet AGL
Weather: HZ  (haze)

METAR text: VEGT 181130Z 00000KT 3500 HZ FEW020 23/13 Q1012 BECMG 3000 BR
Conditions at: VEGT (GAUHATI (IN-AFB), IN) observed 1130 UTC 18 January 2019
Temperature: 23.0°C (73°F)
Dewpoint: 13.0°C (55°F) [RH = 53%]
Pressure (altimeter): 29.88 inches Hg (1012.0 mb)
Winds: calm
Visibility: 2.17 miles (3.49 km)
Ceiling: at least 12,000 feet AGL
Clouds: few clouds at 2000 feet AGL
Weather: HZ  (haze)

METAR text: VEGT 181100Z 35004KT 3500 HZ FEW020 24/13 Q1012 NOSIG
Conditions at: VEGT (GAUHATI (IN-AFB), IN) observed 1100 UTC 18 January 2019
Temperature: 24.0°C (75°F)
Dewpoint: 13.0°C (55°F) [RH = 50%]
Pressure (altimeter): 29.88 inches Hg (1012.0 mb)
Winds: from the N (350 degrees) at 5 MPH (4 knots; 2.1 m/s)
Visibility: 2.17 miles (3.49 km)
Ceiling: at least 12,000 feet AGL
Clouds: few clouds at 2000 feet AGL
Weather: HZ  (haze)

METAR text: VEGT 181030Z 35005KT 3500 HZ FEW020 25/14 Q1012 NOSIG
Conditions at: VEGT (GAUHATI (IN-AFB), IN) observed 1030 UTC 18 January 2019
Temperature: 25.0°C (77°F)
Dewpoint: 14.0°C (57°F) [RH = 50%]
Pressure (altimeter): 29.88 inches Hg (1012.0 mb)
Winds: from the N (350 degrees) at 6 MPH (5 knots; 2.6 m/s)
Visibility: 2.17 miles (3.49 km)
Ceiling: at least 12,000 feet AGL
Clouds: few clouds at 2000 feet AGL
Weather: HZ  (haze)

METAR text: VEGT 181000Z 34004KT 3500 HZ FEW020 25/13 Q1012 NOSIG
Conditions at: VEGT (GAUHATI (IN-AFB), IN) observed 1000 UTC 18 January 2019
Temperature: 25.0°C (77°F)
Dewpoint: 13.0°C (55°F) [RH = 47%]
Pressure (altimeter): 29.88 inches Hg (1012.0 mb)
Winds: from the NNW (340 degrees) at 5 MPH (4 knots; 2.1 m/s)
Visibility: 2.17 miles (3.49 km)
Ceiling: at least 12,000 feet AGL
Clouds: few clouds at 2000 feet AGL
Weather: HZ  (haze)

METAR text: VEGT 180930Z 01005KT 3000 HZ FEW020 26/13 Q1012 NOSIG
Conditions at: VEGT (GAUHATI (IN-AFB), IN) observed 0930 UTC 18 January 2019
Temperature: 26.0°C (79°F)
Dewpoint: 13.0°C (55°F) [RH = 45%]
Pressure (altimeter): 29.88 inches Hg (1012.0 mb)
Winds: from the N (10 degrees) at 6 MPH (5 knots; 2.6 m/s)
Visibility: 1.86 miles (2.99 km)
Ceiling: at least 12,000 feet AGL
Clouds: few clouds at 2000 feet AGL
Weather: HZ  (haze)

METAR text: VEGT 180900Z 03005KT 3000 HZ FEW020 26/14 Q1012 NOSIG
Conditions at: VEGT (GAUHATI (IN-AFB), IN) observed 0900 UTC 18 January 2019
Temperature: 26.0°C (79°F)
Dewpoint: 14.0°C (57°F) [RH = 48%]
Pressure (altimeter): 29.88 inches Hg (1012.0 mb)
Winds: from the NNE (30 degrees) at 6 MPH (5 knots; 2.6 m/s)
Visibility: 1.86 miles (2.99 km)
Ceiling: at least 12,000 feet AGL
Clouds: few clouds at 2000 feet AGL
Weather: HZ  (haze)

METAR text: VEGT 180830Z 35004KT 3000 HZ FEW020 25/14 Q1012 NOSIG
Conditions at: VEGT (GAUHATI (IN-AFB), IN) observed 0830 UTC 18 January 2019
Temperature: 25.0°C (77°F)
Dewpoint: 14.0°C (57°F) [RH = 50%]
Pressure (altimeter): 29.88 inches Hg (1012.0 mb)
Winds: from the N (350 degrees) at 5 MPH (4 knots; 2.1 m/s)
Visibility: 1.86 miles (2.99 km)
Ceiling: at least 12,000 feet AGL
Clouds: few clouds at 2000 feet AGL
Weather: HZ  (haze)

METAR text: VEGT 180800Z 34004KT 3000 HZ FEW020 25/14 Q1013 NOSIG
Conditions at: VEGT (GAUHATI (IN-AFB), IN) observed 0800 UTC 18 January 2019
Temperature: 25.0°C (77°F)
Dewpoint: 14.0°C (57°F) [RH = 50%]
Pressure (altimeter): 29.91 inches Hg (1013.0 mb)
Winds: from the NNW (340 degrees) at 5 MPH (4 knots; 2.1 m/s)
Visibility: 1.86 miles (2.99 km)
Ceiling: at least 12,000 feet AGL
Clouds: few clouds at 2000 feet AGL
Weather: HZ  (haze)

METAR text: VEGT 180730Z 300065KT 3000 HZ FEW020 25/15 Q1013 NOSIG
Conditions at: VEGT (GAUHATI (IN-AFB), IN) observed 0730 UTC 18 January 2019
Temperature: 25.0°C (77°F)
Dewpoint: 15.0°C (59°F) [RH = 54%]
Pressure (altimeter): 29.91 inches Hg (1013.0 mb)
Winds: from the WNW (300 degrees) at 75 MPH (65 knots; 33.4 m/s)
Visibility: 1.86 miles (2.99 km)
Ceiling: at least 12,000 feet AGL
Clouds: few clouds at 2000 feet AGL
Weather: HZ  (haze)

METAR text: VEGT 180700Z 04005KT 3000 HZ FEW020 25/15 Q1014 NOSIG
Conditions at: VEGT (GAUHATI (IN-AFB), IN) observed 0700 UTC 18 January 2019
Temperature: 25.0°C (77°F)
Dewpoint: 15.0°C (59°F) [RH = 54%]
Pressure (altimeter): 29.94 inches Hg (1014.0 mb)
Winds: from the NE (40 degrees) at 6 MPH (5 knots; 2.6 m/s)
Visibility: 1.86 miles (2.99 km)
Ceiling: at least 12,000 feet AGL
Clouds: few clouds at 2000 feet AGL
Weather: HZ  (haze)

METAR text: VEGT 180630Z 00000KT 3000 HZ FEW020 25/16 Q1014 NOSIG
Conditions at: VEGT (GAUHATI (IN-AFB), IN) observed 0630 UTC 18 January 2019
Temperature: 25.0°C (77°F)
Dewpoint: 16.0°C (61°F) [RH = 57%]
Pressure (altimeter): 29.94 inches Hg (1014.0 mb)
Winds: calm
Visibility: 1.86 miles (2.99 km)
Ceiling: at least 12,000 feet AGL
Clouds: few clouds at 2000 feet AGL
Weather: HZ  (haze)

METAR text: VEGT 180600Z 35004KT 3000 HZ FEW020 24/17 Q1015 NOSIG
Conditions at: VEGT (GAUHATI (IN-AFB), IN) observed 0600 UTC 18 January 2019
Temperature: 24.0°C (75°F)
Dewpoint: 17.0°C (63°F) [RH = 65%]
Pressure (altimeter): 29.97 inches Hg (1015.0 mb)
Winds: from the N (350 degrees) at 5 MPH (4 knots; 2.1 m/s)
Visibility: 1.86 miles (2.99 km)
Ceiling: at least 12,000 feet AGL
Clouds: few clouds at 2000 feet AGL
Weather: HZ  (haze)

METAR text: VEGT 180530Z 00000KT 3000 HZ FEW020 22/16 Q1016 NOSIG
Conditions at: VEGT (GAUHATI (IN-AFB), IN) observed 0530 UTC 18 January 2019
Temperature: 22.0°C (72°F)
Dewpoint: 16.0°C (61°F) [RH = 69%]
Pressure (altimeter): 30.00 inches Hg (1016.0 mb)
Winds: calm
Visibility: 1.86 miles (2.99 km)
Ceiling: at least 12,000 feet AGL
Clouds: few clouds at 2000 feet AGL
Weather: HZ  (haze)

METAR text: VEGT 180500Z 36004KT 3000 HZ FEW020 22/17 Q1016 NOSIG
Conditions at: VEGT (GAUHATI (IN-AFB), IN) observed 0500 UTC 18 January 2019
Temperature: 22.0°C (72°F)
Dewpoint: 17.0°C (63°F) [RH = 73%]
Pressure (altimeter): 30.00 inches Hg (1016.0 mb)
Winds: from the N (360 degrees) at 5 MPH (4 knots; 2.1 m/s)
Visibility: 1.86 miles (2.99 km)
Ceiling: at least 12,000 feet AGL
Clouds: few clouds at 2000 feet AGL
Weather: HZ  (haze)

METAR text: VEGT 180430Z 00000KT 2500 BR FEW020 21/18 Q1017 NOSIG
Conditions at: VEGT (GAUHATI (IN-AFB), IN) observed 0430 UTC 18 January 2019
Temperature: 21.0°C (70°F)
Dewpoint: 18.0°C (64°F) [RH = 83%]
Pressure (altimeter): 30.03 inches Hg (1017.0 mb)
Winds: calm
Visibility: 1.55 miles (2.49 km)
Ceiling: at least 12,000 feet AGL
Clouds: few clouds at 2000 feet AGL
Weather: BR  (mist)

METAR text: VEGT 180400Z 00000KT 2500 BR FEW020 20/18 Q1017 NOSIG
Conditions at: VEGT (GAUHATI (IN-AFB), IN) observed 0400 UTC 18 January 2019
Temperature: 20.0°C (68°F)
Dewpoint: 18.0°C (64°F) [RH = 88%]
Pressure (altimeter): 30.03 inches Hg (1017.0 mb)
Winds: calm
Visibility: 1.55 miles (2.49 km)
Ceiling: at least 12,000 feet AGL
Clouds: few clouds at 2000 feet AGL
Weather: BR  (mist)

METAR text: VEGT 180330Z 00000KT 2000 BR FEW020 18/17 Q1017 NOSIG
Conditions at: VEGT (GAUHATI (IN-AFB), IN) observed 0330 UTC 18 January 2019
Temperature: 18.0°C (64°F)
Dewpoint: 17.0°C (63°F) [RH = 94%]
Pressure (altimeter): 30.03 inches Hg (1017.0 mb)
Winds: calm
Visibility: 1.24 miles (2.00 km)
Ceiling: at least 12,000 feet AGL
Clouds: few clouds at 2000 feet AGL
Weather: BR  (mist)

METAR text: VEGT 180300Z 00000KT 2000 BR FEW018 16/15 Q1017 NOSIG
Conditions at: VEGT (GAUHATI (IN-AFB), IN) observed 0300 UTC 18 January 2019
Temperature: 16.0°C (61°F)
Dewpoint: 15.0°C (59°F) [RH = 94%]
Pressure (altimeter): 30.03 inches Hg (1017.0 mb)
Winds: calm
Visibility: 1.24 miles (2.00 km)
Ceiling: at least 12,000 feet AGL
Clouds: few clouds at 1800 feet AGL
Weather: BR  (mist)

METAR text: VEGT 180230Z 00000KT 1500 BR FEW018 15/15 Q1017 NOSIG
Conditions at: VEGT (GAUHATI (IN-AFB), IN) observed 0230 UTC 18 January 2019
Temperature: 15.0°C (59°F)
Dewpoint: 15.0°C (59°F) [RH = 100%]
Pressure (altimeter): 30.03 inches Hg (1017.0 mb)
Winds: calm
Visibility: 0.93 miles (1.50 km)
Ceiling: at least 12,000 feet AGL
Clouds: few clouds at 1800 feet AGL
Weather: BR  (mist)

METAR text: VEGT 180200Z 00000KT 1500 BR FEW018 14/13 Q1016 BECMG 3000 BR
Conditions at: VEGT (GAUHATI (IN-AFB), IN) observed 0200 UTC 18 January 2019
Temperature: 14.0°C (57°F)
Dewpoint: 13.0°C (55°F) [RH = 94%]
Pressure (altimeter): 30.00 inches Hg (1016.0 mb)
Winds: calm
Visibility: 0.93 miles (1.50 km)
Ceiling: at least 12,000 feet AGL
Clouds: few clouds at 1800 feet AGL
Weather: BR  (mist)

METAR text: VEGT 180130Z 00000KT 1500 BR FEW018 13/12 Q1016 NOSIG
Conditions at: VEGT (GAUHATI (IN-AFB), IN) observed 0130 UTC 18 January 2019
Temperature: 13.0°C (55°F)
Dewpoint: 12.0°C (54°F) [RH = 94%]
Pressure (altimeter): 30.00 inches Hg (1016.0 mb)
Winds: calm
Visibility: 0.93 miles (1.50 km)
Ceiling: at least 12,000 feet AGL
Clouds: few clouds at 1800 feet AGL
Weather: BR  (mist)

METAR text: VEGT 180100Z 00000KT 1200 R02/1400 BR FEW018 12/11 Q1015 NOSIG
Conditions at: VEGT (GAUHATI (IN-AFB), IN) observed 0100 UTC 18 January 2019
Temperature: 12.0°C (54°F)
Dewpoint: 11.0°C (52°F) [RH = 94%]
Pressure (altimeter): 29.97 inches Hg (1015.0 mb)
Winds: calm
Visibility: 0.75 miles (1.21 km)
Ceiling: at least 12,000 feet AGL
Clouds: few clouds at 1800 feet AGL
Weather: BR  (mist)

METAR text: VEGT 180030Z 00000KT 1200 R02/1400 BR FEW018 13/12 Q1015 NOSIG
Conditions at: VEGT (GAUHATI (IN-AFB), IN) observed 0030 UTC 18 January 2019
Temperature: 13.0°C (55°F)
Dewpoint: 12.0°C (54°F) [RH = 94%]
Pressure (altimeter): 29.97 inches Hg (1015.0 mb)
Winds: calm
Visibility: 0.75 miles (1.21 km)
Ceiling: at least 12,000 feet AGL
Clouds: few clouds at 1800 feet AGL
Weather: BR  (mist)

METAR text: VEGT 180000Z 00000KT 1300 R02/1400 BR FEW018 13/12 Q1014 NOSIG
Conditions at: VEGT (GAUHATI (IN-AFB), IN) observed 0000 UTC 18 January 2019
Temperature: 13.0°C (55°F)
Dewpoint: 12.0°C (54°F) [RH = 94%]
Pressure (altimeter): 29.94 inches Hg (1014.0 mb)
Winds: calm
Visibility: 0.81 miles (1.30 km)
Ceiling: at least 12,000 feet AGL
Clouds: few clouds at 1800 feet AGL
Weather: BR  (mist)

Forecast for: VEGT (GAUHATI (IN-AFB), IN)
Text: TAF VEGT 191100Z 1912/1921 00000KT 3000 BR FEW020
Forecast period: 1200 to 1800 UTC 19 January 2019
Forecast type: FROM: standard forecast or significant change
Winds: calm
Visibility: 1.86 miles (2.99 km)
Ceiling: at least 12,000 feet AGL
Clouds: few clouds at 2000 feet AGL
Weather: BR  (mist)
Text: BECMG 1918/1920 2000 BR FEW018
Forecast period: 1800 to 2100 UTC 19 January 2019
Forecast type: BECOMING: Conditions expected to become as follows by 2000 UTC 19 January 2019
Winds: calm
Visibility: 1.24 miles (2.00 km)
Ceiling: at least 12,000 feet AGL
Clouds: few clouds at 1800 feet AGL
Weather: BR  (mist)